London Airport
CYXU : now visible

Airfield :











YOU CAN JOIN US ON...

 
LOGIN :

Register | Disclaimer

   EN    FR    IT 

 









Legend :    VFR   Marginal VFR   IFR   Intensive IFR   Very Intensive IFR
Visi :
Ceiling :
>= 8 km
>= 3000ft
5 to 8 km
1000 to 3000 ft
1500m to 5 km
500 to 1000 ft
800 to 1500m
200 to 500 ft
< 800m
< 200 ft
Symbols :   Thunderstorms  Fog  Heavy snow  Heavy precipitations  Wind > 20 kt






- Airport Elevation : 912 ft
- IATA code : YXU


CYXU - London

CURRENT METAR :
  • 081900Z 29008KT 260V330 15SM FEW029 FEW140 13/07 A2970 RMK CU2AC1 AC TR SLP064 DENSITY ALT 1100FT

EXPIRED METARs :
  • 081800Z 31011KT 15SM FEW017 BKN019 11/06 A2971 RMK CF1SC5 CF TR SLP067
  • 081700Z 31012G19KT 15SM FEW013 BKN016 10/07 A2971 RMK CF1SC6 SLP067
  • 081627Z 30010KT 12SM SCT010 BKN014 09/07 A2970 RMK ST4SC3 SLP065

TAF TAF CYXU
Valid from the 08 at 18:00 until the 09 at 18:00 UTC


081741Z 0818/0918 31012G22KT P6SM BKN015
TEMPO 0818/0820 BKN025
FM082000 31010G20KT P6SM FEW030
TEMPO 0820/0823 BKN030
FM082300 30007KT P6SM BKN040
TEMPO 0823/0903 6SM -SHRA BR BKN020
BECMG 0823/0901 VRB03KT
FM090300 VRB03KT 2SM -SHRA BR OVC006
PROB30 0904/0907 1/2SM SHRA VV002
FM090800 34015G25KT 6SM -SHRA BR BKN007 OVC015
FM091100 32010G20KT P6SM FEW020 SCT080
FM091500 30015G25KT P6SM BKN020
TEMPO 0915/0918 P6SM -SHRA
BECMG 0915/0917 30018G28KT RMK NXT FCST BY 090000Z



MET'MAP, your aeronautical weather chart ! - Copyright ORBIFLY December 2007 - Disclaimer

ORBIFLY MET'MAP TEAM :

Programming & Development : Alexandra Zaïnal
Concept & original design : Baudouin d'Aumeries
Assistance for programming : Marc-Olivier Méhu
Technical & hardware support : Manuel Goepfert

Contact : metmap@orbifly.com




SOURCES & CREDITS :

   NOAA       Earth
Advisory